sensor_id;sensor_type;location;lat;lon;timestamp;temperature;humidity
77305;DHT22;66364;52.622;7.746;2023-08-08T00:00:22;13.40;99.90
77305;DHT22;66364;52.622;7.746;2023-08-08T00:02:24;13.50;99.90
77305;DHT22;66364;52.622;7.746;2023-08-08T00:04:24;13.80;99.90
77305;DHT22;66364;52.622;7.746;2023-08-08T00:06:25;13.60;99.90
77305;DHT22;66364;52.622;7.746;2023-08-08T00:08:26;13.60;99.90
77305;DHT22;66364;52.622;7.746;2023-08-08T00:10:28;13.70;99.90
77305;DHT22;66364;52.622;7.746;2023-08-08T00:12:29;13.60;99.90
77305;DHT22;66364;52.622;7.746;2023-08-08T00:14:30;13.80;99.90
77305;DHT22;66364;52.622;7.746;2023-08-08T00:16:31;13.70;99.90
77305;DHT22;66364;52.622;7.746;2023-08-08T00:18:32;13.80;99.90
77305;DHT22;66364;52.622;7.746;2023-08-08T00:20:34;13.60;99.90
77305;DHT22;66364;52.622;7.746;2023-08-08T00:22:35;13.40;99.90
77305;DHT22;66364;52.622;7.746;2023-08-08T00:24:36;13.40;99.90
77305;DHT22;66364;52.622;7.746;2023-08-08T00:26:37;13.70;99.90
77305;DHT22;66364;52.622;7.746;2023-08-08T00:28:38;13.80;99.90
77305;DHT22;66364;52.622;7.746;2023-08-08T00:30:39;13.70;99.90
77305;DHT22;66364;52.622;7.746;2023-08-08T00:32:41;13.90;99.90
77305;DHT22;66364;52.622;7.746;2023-08-08T00:34:42;13.70;99.90
77305;DHT22;66364;52.622;7.746;2023-08-08T00:36:43;13.60;99.90
77305;DHT22;66364;52.622;7.746;2023-08-08T00:38:45;13.70;99.90
77305;DHT22;66364;52.622;7.746;2023-08-08T00:40:46;14.00;99.90
77305;DHT22;66364;52.622;7.746;2023-08-08T00:42:46;14.00;99.90
77305;DHT22;66364;52.622;7.746;2023-08-08T00:44:48;13.70;99.90
77305;DHT22;66364;52.622;7.746;2023-08-08T00:46:49;13.80;99.90
77305;DHT22;66364;52.622;7.746;2023-08-08T00:48:51;13.90;99.90
77305;DHT22;66364;52.622;7.746;2023-08-08T00:50:53;14.00;99.90
77305;DHT22;66364;52.622;7.746;2023-08-08T00:52:54;14.10;99.90
77305;DHT22;66364;52.622;7.746;2023-08-08T00:54:56;14.00;99.90
77305;DHT22;66364;52.622;7.746;2023-08-08T00:56:57;14.00;99.90
77305;DHT22;66364;52.622;7.746;2023-08-08T00:58:58;13.90;99.90
77305;DHT22;66364;52.622;7.746;2023-08-08T01:00:59;13.90;99.90
77305;DHT22;66364;52.622;7.746;2023-08-08T01:03:02;13.70;99.90
77305;DHT22;66364;52.622;7.746;2023-08-08T01:05:04;13.70;99.90
77305;DHT22;66364;52.622;7.746;2023-08-08T01:09:46;13.70;99.90
77305;DHT22;66364;52.622;7.746;2023-08-08T01:11:45;13.60;99.90
77305;DHT22;66364;52.622;7.746;2023-08-08T01:13:48;13.70;99.90
77305;DHT22;66364;52.622;7.746;2023-08-08T01:15:50;13.90;99.90
77305;DHT22;66364;52.622;7.746;2023-08-08T01:17:51;14.00;99.90
77305;DHT22;66364;52.622;7.746;2023-08-08T01:19:53;13.60;99.90
77305;DHT22;66364;52.622;7.746;2023-08-08T01:21:57;14.00;99.90
77305;DHT22;66364;52.622;7.746;2023-08-08T01:24:20;14.00;99.90
77305;DHT22;66364;52.622;7.746;2023-08-08T01:26:31;13.60;99.90
77305;DHT22;66364;52.622;7.746;2023-08-08T01:28:34;13.50;99.90
77305;DHT22;66364;52.622;7.746;2023-08-08T01:30:35;13.70;99.90
77305;DHT22;66364;52.622;7.746;2023-08-08T01:32:36;13.40;99.90
77305;DHT22;66364;52.622;7.746;2023-08-08T01:34:37;13.70;99.90
77305;DHT22;66364;52.622;7.746;2023-08-08T01:38:54;13.80;99.90
77305;DHT22;66364;52.622;7.746;2023-08-08T01:40:57;13.60;99.90
77305;DHT22;66364;52.622;7.746;2023-08-08T01:42:59;13.60;99.90
77305;DHT22;66364;52.622;7.746;2023-08-08T01:45:00;13.60;99.90
77305;DHT22;66364;52.622;7.746;2023-08-08T01:47:02;13.70;99.90
77305;DHT22;66364;52.622;7.746;2023-08-08T01:49:03;13.70;99.90
77305;DHT22;66364;52.622;7.746;2023-08-08T01:51:05;13.70;99.90
77305;DHT22;66364;52.622;7.746;2023-08-08T01:53:06;13.50;99.90
77305;DHT22;66364;52.622;7.746;2023-08-08T01:55:10;13.80;99.90
77305;DHT22;66364;52.622;7.746;2023-08-08T01:57:10;13.70;99.90
77305;DHT22;66364;52.622;7.746;2023-08-08T01:59:11;13.80;99.90
77305;DHT22;66364;52.622;7.746;2023-08-08T02:01:12;13.60;99.90
77305;DHT22;66364;52.622;7.746;2023-08-08T02:03:13;13.70;99.90
77305;DHT22;66364;52.622;7.746;2023-08-08T02:05:15;13.60;99.90
77305;DHT22;66364;52.622;7.746;2023-08-08T02:07:16;13.80;99.90
77305;DHT22;66364;52.622;7.746;2023-08-08T02:09:17;13.60;99.90
77305;DHT22;66364;52.622;7.746;2023-08-08T02:11:18;13.80;99.90
77305;DHT22;66364;52.622;7.746;2023-08-08T02:13:19;14.00;99.90
77305;DHT22;66364;52.622;7.746;2023-08-08T02:15:20;13.80;99.90
77305;DHT22;66364;52.622;7.746;2023-08-08T02:17:21;14.00;99.90
77305;DHT22;66364;52.622;7.746;2023-08-08T02:19:22;13.60;99.90
77305;DHT22;66364;52.622;7.746;2023-08-08T02:21:23;14.10;99.90
77305;DHT22;66364;52.622;7.746;2023-08-08T02:23:24;13.80;99.90
77305;DHT22;66364;52.622;7.746;2023-08-08T02:25:25;13.70;99.90
77305;DHT22;66364;52.622;7.746;2023-08-08T02:27:26;14.00;99.90
77305;DHT22;66364;52.622;7.746;2023-08-08T02:29:28;13.90;99.90
77305;DHT22;66364;52.622;7.746;2023-08-08T02:31:29;13.70;99.90
77305;DHT22;66364;52.622;7.746;2023-08-08T02:33:30;13.70;99.90
77305;DHT22;66364;52.622;7.746;2023-08-08T02:35:31;13.70;99.90
77305;DHT22;66364;52.622;7.746;2023-08-08T02:37:32;13.70;99.90
77305;DHT22;66364;52.622;7.746;2023-08-08T02:39:33;13.80;99.90
77305;DHT22;66364;52.622;7.746;2023-08-08T02:41:37;13.80;99.90
77305;DHT22;66364;52.622;7.746;2023-08-08T02:43:39;13.80;99.90
77305;DHT22;66364;52.622;7.746;2023-08-08T02:45:40;13.80;99.90
77305;DHT22;66364;52.622;7.746;2023-08-08T02:47:41;14.00;99.90
77305;DHT22;66364;52.622;7.746;2023-08-08T02:49:42;14.00;99.90
77305;DHT22;66364;52.622;7.746;2023-08-08T02:51:43;14.10;99.90
77305;DHT22;66364;52.622;7.746;2023-08-08T02:53:44;13.70;99.90
77305;DHT22;66364;52.622;7.746;2023-08-08T02:55:45;14.00;99.90
77305;DHT22;66364;52.622;7.746;2023-08-08T02:57:47;13.70;99.90
77305;DHT22;66364;52.622;7.746;2023-08-08T02:59:48;13.90;99.90
77305;DHT22;66364;52.622;7.746;2023-08-08T03:01:49;13.70;99.90
77305;DHT22;66364;52.622;7.746;2023-08-08T03:03:50;14.00;99.90
77305;DHT22;66364;52.622;7.746;2023-08-08T03:05:51;13.80;99.90
77305;DHT22;66364;52.622;7.746;2023-08-08T03:07:52;13.90;99.90
77305;DHT22;66364;52.622;7.746;2023-08-08T03:09:54;13.80;99.90
77305;DHT22;66364;52.622;7.746;2023-08-08T03:11:55;13.70;99.90
77305;DHT22;66364;52.622;7.746;2023-08-08T03:13:56;13.80;99.90
77305;DHT22;66364;52.622;7.746;2023-08-08T03:15:57;13.80;99.90
77305;DHT22;66364;52.622;7.746;2023-08-08T03:17:58;13.80;99.90
77305;DHT22;66364;52.622;7.746;2023-08-08T03:19:59;13.90;99.90
77305;DHT22;66364;52.622;7.746;2023-08-08T03:22:00;13.90;99.90
77305;DHT22;66364;52.622;7.746;2023-08-08T03:24:01;13.90;99.90
77305;DHT22;66364;52.622;7.746;2023-08-08T03:26:02;13.90;99.90
77305;DHT22;66364;52.622;7.746;2023-08-08T03:28:03;14.10;99.90
77305;DHT22;66364;52.622;7.746;2023-08-08T03:30:05;13.80;99.90
77305;DHT22;66364;52.622;7.746;2023-08-08T03:32:06;13.80;99.90
77305;DHT22;66364;52.622;7.746;2023-08-08T03:34:08;13.80;99.90
77305;DHT22;66364;52.622;7.746;2023-08-08T03:36:09;13.70;99.90
77305;DHT22;66364;52.622;7.746;2023-08-08T03:38:10;14.10;99.90
77305;DHT22;66364;52.622;7.746;2023-08-08T03:40:11;13.80;99.90
77305;DHT22;66364;52.622;7.746;2023-08-08T03:42:12;14.00;99.90
77305;DHT22;66364;52.622;7.746;2023-08-08T03:44:14;13.80;99.90
77305;DHT22;66364;52.622;7.746;2023-08-08T03:46:15;13.90;99.90
77305;DHT22;66364;52.622;7.746;2023-08-08T03:48:15;14.00;99.90
77305;DHT22;66364;52.622;7.746;2023-08-08T03:50:17;14.20;99.90
77305;DHT22;66364;52.622;7.746;2023-08-08T03:52:18;13.90;99.90
77305;DHT22;66364;52.622;7.746;2023-08-08T03:54:19;13.90;99.90
77305;DHT22;66364;52.622;7.746;2023-08-08T03:56:20;13.80;99.90
77305;DHT22;66364;52.622;7.746;2023-08-08T03:58:21;14.00;99.90
77305;DHT22;66364;52.622;7.746;2023-08-08T04:00:22;13.90;99.90
77305;DHT22;66364;52.622;7.746;2023-08-08T04:02:24;13.70;99.90
77305;DHT22;66364;52.622;7.746;2023-08-08T04:04:25;14.10;99.90
77305;DHT22;66364;52.622;7.746;2023-08-08T04:06:26;14.10;99.90
77305;DHT22;66364;52.622;7.746;2023-08-08T04:08:27;13.80;99.90
77305;DHT22;66364;52.622;7.746;2023-08-08T04:10:29;14.10;99.90
77305;DHT22;66364;52.622;7.746;2023-08-08T04:12:30;13.70;99.90
77305;DHT22;66364;52.622;7.746;2023-08-08T04:14:32;13.70;99.90
77305;DHT22;66364;52.622;7.746;2023-08-08T04:16:33;13.80;99.90
77305;DHT22;66364;52.622;7.746;2023-08-08T04:18:34;13.70;99.90
77305;DHT22;66364;52.622;7.746;2023-08-08T04:20:35;13.80;99.90
77305;DHT22;66364;52.622;7.746;2023-08-08T04:22:36;13.70;99.90
77305;DHT22;66364;52.622;7.746;2023-08-08T04:24:37;13.90;99.90
77305;DHT22;66364;52.622;7.746;2023-08-08T04:26:38;14.10;99.90
77305;DHT22;66364;52.622;7.746;2023-08-08T04:28:39;13.80;99.90
77305;DHT22;66364;52.622;7.746;2023-08-08T04:30:39;14.10;99.90
77305;DHT22;66364;52.622;7.746;2023-08-08T04:32:41;14.00;99.90
77305;DHT22;66364;52.622;7.746;2023-08-08T04:34:42;13.60;99.90
77305;DHT22;66364;52.622;7.746;2023-08-08T04:36:43;14.10;99.90
77305;DHT22;66364;52.622;7.746;2023-08-08T04:38:45;13.80;99.90
77305;DHT22;66364;52.622;7.746;2023-08-08T04:40:46;13.80;99.90
77305;DHT22;66364;52.622;7.746;2023-08-08T04:42:46;13.90;99.90
77305;DHT22;66364;52.622;7.746;2023-08-08T04:44:48;13.90;99.90
77305;DHT22;66364;52.622;7.746;2023-08-08T04:46:49;14.20;99.90
77305;DHT22;66364;52.622;7.746;2023-08-08T04:48:50;13.90;99.90
77305;DHT22;66364;52.622;7.746;2023-08-08T04:50:50;13.90;99.90
77305;DHT22;66364;52.622;7.746;2023-08-08T04:52:51;13.90;99.90
77305;DHT22;66364;52.622;7.746;2023-08-08T04:54:52;14.00;99.90
77305;DHT22;66364;52.622;7.746;2023-08-08T04:56:54;13.90;99.90
77305;DHT22;66364;52.622;7.746;2023-08-08T04:58:55;13.90;99.90
77305;DHT22;66364;52.622;7.746;2023-08-08T05:00:56;13.80;99.90
77305;DHT22;66364;52.622;7.746;2023-08-08T05:02:57;14.00;99.90
77305;DHT22;66364;52.622;7.746;2023-08-08T05:04:58;14.00;99.90
77305;DHT22;66364;52.622;7.746;2023-08-08T05:06:59;14.10;99.90
77305;DHT22;66364;52.622;7.746;2023-08-08T05:09:00;13.80;99.90
77305;DHT22;66364;52.622;7.746;2023-08-08T05:11:01;14.10;99.90
77305;DHT22;66364;52.622;7.746;2023-08-08T05:13:02;14.10;99.90
77305;DHT22;66364;52.622;7.746;2023-08-08T05:15:04;13.80;99.90
77305;DHT22;66364;52.622;7.746;2023-08-08T05:17:06;14.30;99.90
77305;DHT22;66364;52.622;7.746;2023-08-08T05:19:07;14.40;99.90
77305;DHT22;66364;52.622;7.746;2023-08-08T05:21:15;14.20;99.90
77305;DHT22;66364;52.622;7.746;2023-08-08T05:23:16;14.20;99.90
77305;DHT22;66364;52.622;7.746;2023-08-08T05:25:17;14.30;99.90
77305;DHT22;66364;52.622;7.746;2023-08-08T05:27:18;14.50;99.90
77305;DHT22;66364;52.622;7.746;2023-08-08T05:29:19;14.40;99.90
77305;DHT22;66364;52.622;7.746;2023-08-08T05:31:20;14.30;99.90
77305;DHT22;66364;52.622;7.746;2023-08-08T05:33:21;14.30;99.90
77305;DHT22;66364;52.622;7.746;2023-08-08T05:35:22;14.30;99.90
77305;DHT22;66364;52.622;7.746;2023-08-08T05:37:24;14.20;99.90
77305;DHT22;66364;52.622;7.746;2023-08-08T05:39:25;14.60;99.90
77305;DHT22;66364;52.622;7.746;2023-08-08T05:41:25;14.40;99.90
77305;DHT22;66364;52.622;7.746;2023-08-08T05:43:27;14.60;99.90
77305;DHT22;66364;52.622;7.746;2023-08-08T05:45:28;14.40;99.90
77305;DHT22;66364;52.622;7.746;2023-08-08T05:47:30;14.40;99.90
77305;DHT22;66364;52.622;7.746;2023-08-08T05:49:31;14.50;99.90
77305;DHT22;66364;52.622;7.746;2023-08-08T05:51:32;14.50;99.90
77305;DHT22;66364;52.622;7.746;2023-08-08T05:53:33;14.60;99.90
77305;DHT22;66364;52.622;7.746;2023-08-08T05:55:34;14.60;99.90
77305;DHT22;66364;52.622;7.746;2023-08-08T05:57:36;14.60;99.90
77305;DHT22;66364;52.622;7.746;2023-08-08T05:59:36;14.50;99.90
77305;DHT22;66364;52.622;7.746;2023-08-08T06:01:37;14.60;99.90
77305;DHT22;66364;52.622;7.746;2023-08-08T06:03:39;14.70;99.90
77305;DHT22;66364;52.622;7.746;2023-08-08T06:05:40;14.70;99.90
77305;DHT22;66364;52.622;7.746;2023-08-08T06:07:40;14.80;99.90
77305;DHT22;66364;52.622;7.746;2023-08-08T06:09:52;14.80;99.90
77305;DHT22;66364;52.622;7.746;2023-08-08T06:11:54;15.00;99.90
77305;DHT22;66364;52.622;7.746;2023-08-08T06:13:55;14.90;99.90
77305;DHT22;66364;52.622;7.746;2023-08-08T06:15:56;15.10;99.90
77305;DHT22;66364;52.622;7.746;2023-08-08T06:17:59;15.30;99.90
77305;DHT22;66364;52.622;7.746;2023-08-08T06:20:00;15.20;99.90
77305;DHT22;66364;52.622;7.746;2023-08-08T06:22:01;15.50;99.90
77305;DHT22;66364;52.622;7.746;2023-08-08T06:24:03;15.40;99.90
77305;DHT22;66364;52.622;7.746;2023-08-08T06:26:04;15.30;99.90
77305;DHT22;66364;52.622;7.746;2023-08-08T06:28:05;15.20;99.90
77305;DHT22;66364;52.622;7.746;2023-08-08T06:30:07;15.30;99.90
77305;DHT22;66364;52.622;7.746;2023-08-08T06:32:08;15.30;99.90
77305;DHT22;66364;52.622;7.746;2023-08-08T06:34:09;15.40;99.90
77305;DHT22;66364;52.622;7.746;2023-08-08T06:36:10;15.60;99.90
77305;DHT22;66364;52.622;7.746;2023-08-08T06:38:11;15.70;99.90
77305;DHT22;66364;52.622;7.746;2023-08-08T06:40:12;15.40;99.90
77305;DHT22;66364;52.622;7.746;2023-08-08T06:42:13;15.70;99.90
77305;DHT22;66364;52.622;7.746;2023-08-08T06:44:14;15.70;99.90
77305;DHT22;66364;52.622;7.746;2023-08-08T06:46:15;15.60;99.90
77305;DHT22;66364;52.622;7.746;2023-08-08T06:48:16;15.90;99.90
77305;DHT22;66364;52.622;7.746;2023-08-08T06:50:17;16.20;99.90
77305;DHT22;66364;52.622;7.746;2023-08-08T06:52:18;16.00;99.90
77305;DHT22;66364;52.622;7.746;2023-08-08T06:54:19;16.10;99.90
77305;DHT22;66364;52.622;7.746;2023-08-08T06:56:20;16.20;99.90
77305;DHT22;66364;52.622;7.746;2023-08-08T06:58:22;16.50;99.90
77305;DHT22;66364;52.622;7.746;2023-08-08T07:00:22;15.80;99.90
77305;DHT22;66364;52.622;7.746;2023-08-08T07:02:24;16.00;99.90
77305;DHT22;66364;52.622;7.746;2023-08-08T07:04:24;16.00;99.90
77305;DHT22;66364;52.622;7.746;2023-08-08T07:06:25;16.00;99.90
77305;DHT22;66364;52.622;7.746;2023-08-08T07:08:26;15.90;99.90
77305;DHT22;66364;52.622;7.746;2023-08-08T07:10:28;15.90;99.90
77305;DHT22;66364;52.622;7.746;2023-08-08T07:12:29;15.80;99.90
77305;DHT22;66364;52.622;7.746;2023-08-08T07:14:30;15.90;99.90
77305;DHT22;66364;52.622;7.746;2023-08-08T07:16:31;16.10;99.90
77305;DHT22;66364;52.622;7.746;2023-08-08T07:18:33;16.00;99.90
77305;DHT22;66364;52.622;7.746;2023-08-08T07:20:33;16.30;99.90
77305;DHT22;66364;52.622;7.746;2023-08-08T07:22:36;16.30;99.90
77305;DHT22;66364;52.622;7.746;2023-08-08T07:24:37;16.00;99.90
77305;DHT22;66364;52.622;7.746;2023-08-08T07:26:38;16.00;99.90
77305;DHT22;66364;52.622;7.746;2023-08-08T07:28:39;16.00;99.90
77305;DHT22;66364;52.622;7.746;2023-08-08T07:30:41;16.00;99.90
77305;DHT22;66364;52.622;7.746;2023-08-08T07:32:42;16.40;99.90
77305;DHT22;66364;52.622;7.746;2023-08-08T07:34:42;16.60;99.90
77305;DHT22;66364;52.622;7.746;2023-08-08T07:36:44;16.30;99.90
77305;DHT22;66364;52.622;7.746;2023-08-08T07:38:45;16.60;99.90
77305;DHT22;66364;52.622;7.746;2023-08-08T07:40:46;16.70;99.90
77305;DHT22;66364;52.622;7.746;2023-08-08T07:42:48;16.70;99.90
77305;DHT22;66364;52.622;7.746;2023-08-08T07:44:49;16.80;99.90
77305;DHT22;66364;52.622;7.746;2023-08-08T07:46:50;16.80;99.90
77305;DHT22;66364;52.622;7.746;2023-08-08T07:48:51;16.90;99.90
77305;DHT22;66364;52.622;7.746;2023-08-08T07:50:52;16.90;99.90
77305;DHT22;66364;52.622;7.746;2023-08-08T07:52:53;17.10;99.90
77305;DHT22;66364;52.622;7.746;2023-08-08T07:54:55;17.40;99.90
77305;DHT22;66364;52.622;7.746;2023-08-08T07:56:55;17.10;99.90
77305;DHT22;66364;52.622;7.746;2023-08-08T07:58:56;17.20;99.90
77305;DHT22;66364;52.622;7.746;2023-08-08T08:00:57;17.40;98.70
77305;DHT22;66364;52.622;7.746;2023-08-08T08:02:58;17.40;97.90
77305;DHT22;66364;52.622;7.746;2023-08-08T08:04:59;17.60;98.10
77305;DHT22;66364;52.622;7.746;2023-08-08T08:07:00;17.60;97.10
77305;DHT22;66364;52.622;7.746;2023-08-08T08:09:01;17.60;96.30
77305;DHT22;66364;52.622;7.746;2023-08-08T08:11:02;17.50;97.50
77305;DHT22;66364;52.622;7.746;2023-08-08T08:13:03;17.50;97.00
77305;DHT22;66364;52.622;7.746;2023-08-08T08:15:06;17.60;95.50
77305;DHT22;66364;52.622;7.746;2023-08-08T08:17:07;17.50;93.80
77305;DHT22;66364;52.622;7.746;2023-08-08T08:19:08;17.50;94.40
77305;DHT22;66364;52.622;7.746;2023-08-08T08:21:09;17.70;94.80
77305;DHT22;66364;52.622;7.746;2023-08-08T08:23:10;17.80;91.80
77305;DHT22;66364;52.622;7.746;2023-08-08T08:25:11;17.90;91.40
77305;DHT22;66364;52.622;7.746;2023-08-08T08:27:12;18.00;91.00
77305;DHT22;66364;52.622;7.746;2023-08-08T08:29:13;17.70;92.00
77305;DHT22;66364;52.622;7.746;2023-08-08T08:31:14;17.90;93.40
77305;DHT22;66364;52.622;7.746;2023-08-08T08:33:15;18.10;91.10
77305;DHT22;66364;52.622;7.746;2023-08-08T08:35:16;18.50;91.10
77305;DHT22;66364;52.622;7.746;2023-08-08T08:37:17;18.50;89.70
77305;DHT22;66364;52.622;7.746;2023-08-08T08:39:18;18.40;84.50
77305;DHT22;66364;52.622;7.746;2023-08-08T08:41:22;18.30;82.90
77305;DHT22;66364;52.622;7.746;2023-08-08T08:43:24;18.00;85.00
77305;DHT22;66364;52.622;7.746;2023-08-08T08:45:26;18.00;85.50
77305;DHT22;66364;52.622;7.746;2023-08-08T08:47:30;18.20;86.60
77305;DHT22;66364;52.622;7.746;2023-08-08T08:49:32;18.30;85.20
77305;DHT22;66364;52.622;7.746;2023-08-08T08:51:38;18.60;84.10
77305;DHT22;66364;52.622;7.746;2023-08-08T08:53:40;18.70;84.60
77305;DHT22;66364;52.622;7.746;2023-08-08T08:55:41;18.60;81.50
77305;DHT22;66364;52.622;7.746;2023-08-08T08:57:42;18.80;82.70
77305;DHT22;66364;52.622;7.746;2023-08-08T08:59:43;18.70;82.50
77305;DHT22;66364;52.622;7.746;2023-08-08T09:01:44;18.60;81.00
77305;DHT22;66364;52.622;7.746;2023-08-08T09:03:45;18.40;82.60
77305;DHT22;66364;52.622;7.746;2023-08-08T09:05:46;18.40;81.70
77305;DHT22;66364;52.622;7.746;2023-08-08T09:07:48;18.30;81.30
77305;DHT22;66364;52.622;7.746;2023-08-08T09:09:52;18.50;79.50
77305;DHT22;66364;52.622;7.746;2023-08-08T09:11:53;18.80;79.10
77305;DHT22;66364;52.622;7.746;2023-08-08T09:13:54;18.90;80.30
77305;DHT22;66364;52.622;7.746;2023-08-08T09:15:55;19.00;78.80
77305;DHT22;66364;52.622;7.746;2023-08-08T09:17:56;18.90;79.20
77305;DHT22;66364;52.622;7.746;2023-08-08T09:19:58;19.40;77.70
77305;DHT22;66364;52.622;7.746;2023-08-08T09:21:59;19.00;77.20
77305;DHT22;66364;52.622;7.746;2023-08-08T09:24:00;19.00;78.00
77305;DHT22;66364;52.622;7.746;2023-08-08T09:26:00;18.40;79.80
77305;DHT22;66364;52.622;7.746;2023-08-08T09:28:01;18.40;80.10
77305;DHT22;66364;52.622;7.746;2023-08-08T09:30:03;18.20;78.70
77305;DHT22;66364;52.622;7.746;2023-08-08T09:32:05;18.00;78.80
77305;DHT22;66364;52.622;7.746;2023-08-08T09:34:06;18.20;80.30
77305;DHT22;66364;52.622;7.746;2023-08-08T09:36:07;18.10;78.80
77305;DHT22;66364;52.622;7.746;2023-08-08T09:38:08;18.10;79.70
77305;DHT22;66364;52.622;7.746;2023-08-08T09:40:10;17.70;80.50
77305;DHT22;66364;52.622;7.746;2023-08-08T09:42:10;17.60;82.00
77305;DHT22;66364;52.622;7.746;2023-08-08T09:44:12;17.60;83.10
77305;DHT22;66364;52.622;7.746;2023-08-08T09:46:13;18.20;83.20
77305;DHT22;66364;52.622;7.746;2023-08-08T09:48:15;18.90;82.30
77305;DHT22;66364;52.622;7.746;2023-08-08T09:50:17;20.20;78.60
77305;DHT22;66364;52.622;7.746;2023-08-08T09:52:19;20.40;71.20
77305;DHT22;66364;52.622;7.746;2023-08-08T09:54:20;20.60;67.80
77305;DHT22;66364;52.622;7.746;2023-08-08T09:56:23;20.60;65.80
77305;DHT22;66364;52.622;7.746;2023-08-08T09:58:24;20.50;66.30
77305;DHT22;66364;52.622;7.746;2023-08-08T10:00:26;20.30;65.30
77305;DHT22;66364;52.622;7.746;2023-08-08T10:02:27;20.20;67.40
77305;DHT22;66364;52.622;7.746;2023-08-08T10:04:29;19.80;68.90
77305;DHT22;66364;52.622;7.746;2023-08-08T10:06:30;19.40;71.80
77305;DHT22;66364;52.622;7.746;2023-08-08T10:08:31;19.10;69.40
77305;DHT22;66364;52.622;7.746;2023-08-08T10:10:32;19.30;68.30
77305;DHT22;66364;52.622;7.746;2023-08-08T10:12:36;19.10;69.20
77305;DHT22;66364;52.622;7.746;2023-08-08T10:14:41;18.90;68.30
77305;DHT22;66364;52.622;7.746;2023-08-08T10:16:43;18.70;71.00
77305;DHT22;66364;52.622;7.746;2023-08-08T10:18:46;18.70;72.50
77305;DHT22;66364;52.622;7.746;2023-08-08T10:20:48;18.70;72.70
77305;DHT22;66364;52.622;7.746;2023-08-08T10:22:53;18.20;72.50
77305;DHT22;66364;52.622;7.746;2023-08-08T10:24:55;18.10;75.10
77305;DHT22;66364;52.622;7.746;2023-08-08T10:26:57;18.00;75.40
77305;DHT22;66364;52.622;7.746;2023-08-08T10:29:00;18.00;74.90
77305;DHT22;66364;52.622;7.746;2023-08-08T10:31:01;18.10;74.50
77305;DHT22;66364;52.622;7.746;2023-08-08T10:33:02;18.80;75.70
77305;DHT22;66364;52.622;7.746;2023-08-08T10:35:05;19.10;74.20
77305;DHT22;66364;52.622;7.746;2023-08-08T10:37:13;18.90;73.40
77305;DHT22;66364;52.622;7.746;2023-08-08T10:39:18;19.00;73.80
77305;DHT22;66364;52.622;7.746;2023-08-08T10:41:20;19.30;74.20
77305;DHT22;66364;52.622;7.746;2023-08-08T10:43:27;19.30;70.10
77305;DHT22;66364;52.622;7.746;2023-08-08T10:45:29;18.90;70.40
77305;DHT22;66364;52.622;7.746;2023-08-08T10:47:33;18.90;72.50
77305;DHT22;66364;52.622;7.746;2023-08-08T10:49:35;18.90;72.90
77305;DHT22;66364;52.622;7.746;2023-08-08T10:51:38;19.10;72.30
77305;DHT22;66364;52.622;7.746;2023-08-08T10:53:39;18.90;73.10
77305;DHT22;66364;52.622;7.746;2023-08-08T10:55:42;18.80;72.60
77305;DHT22;66364;52.622;7.746;2023-08-08T10:57:42;18.80;73.20
77305;DHT22;66364;52.622;7.746;2023-08-08T10:59:44;18.90;73.70
77305;DHT22;66364;52.622;7.746;2023-08-08T11:01:46;18.80;73.80
77305;DHT22;66364;52.622;7.746;2023-08-08T11:03:47;20.00;74.10
77305;DHT22;66364;52.622;7.746;2023-08-08T11:05:49;20.50;72.90
77305;DHT22;66364;52.622;7.746;2023-08-08T11:07:51;20.10;70.70
77305;DHT22;66364;52.622;7.746;2023-08-08T11:09:53;19.40;76.20
77305;DHT22;66364;52.622;7.746;2023-08-08T11:11:54;18.60;78.20
77305;DHT22;66364;52.622;7.746;2023-08-08T11:13:55;18.20;85.50
77305;DHT22;66364;52.622;7.746;2023-08-08T11:15:56;18.10;89.40
77305;DHT22;66364;52.622;7.746;2023-08-08T11:17:58;18.20;89.70
77305;DHT22;66364;52.622;7.746;2023-08-08T11:19:59;18.10;87.00
77305;DHT22;66364;52.622;7.746;2023-08-08T11:22:00;18.40;88.10
77305;DHT22;66364;52.622;7.746;2023-08-08T11:24:04;18.20;86.50
77305;DHT22;66364;52.622;7.746;2023-08-08T11:26:05;18.10;88.90
77305;DHT22;66364;52.622;7.746;2023-08-08T11:28:06;18.10;90.50
77305;DHT22;66364;52.622;7.746;2023-08-08T11:30:09;17.90;90.90
77305;DHT22;66364;52.622;7.746;2023-08-08T11:32:10;18.00;92.10
77305;DHT22;66364;52.622;7.746;2023-08-08T11:34:11;17.60;91.50
77305;DHT22;66364;52.622;7.746;2023-08-08T11:36:13;17.60;93.80
77305;DHT22;66364;52.622;7.746;2023-08-08T11:38:15;17.90;92.60
77305;DHT22;66364;52.622;7.746;2023-08-08T11:40:17;18.30;91.60
77305;DHT22;66364;52.622;7.746;2023-08-08T11:42:18;18.70;90.50
77305;DHT22;66364;52.622;7.746;2023-08-08T11:44:19;19.10;89.80
77305;DHT22;66364;52.622;7.746;2023-08-08T11:46:23;19.70;86.30
77305;DHT22;66364;52.622;7.746;2023-08-08T11:48:24;19.60;83.40
77305;DHT22;66364;52.622;7.746;2023-08-08T11:50:26;19.40;82.00
77305;DHT22;66364;52.622;7.746;2023-08-08T11:52:28;19.70;82.80
77305;DHT22;66364;52.622;7.746;2023-08-08T11:54:30;20.40;82.50
77305;DHT22;66364;52.622;7.746;2023-08-08T11:56:35;20.60;80.40
77305;DHT22;66364;52.622;7.746;2023-08-08T11:58:37;21.00;79.10
77305;DHT22;66364;52.622;7.746;2023-08-08T12:00:38;20.60;77.10
77305;DHT22;66364;52.622;7.746;2023-08-08T12:02:40;20.30;77.80
77305;DHT22;66364;52.622;7.746;2023-08-08T12:04:45;20.00;78.50
77305;DHT22;66364;52.622;7.746;2023-08-08T12:06:46;19.30;79.50
77305;DHT22;66364;52.622;7.746;2023-08-08T12:08:48;19.30;77.10
77305;DHT22;66364;52.622;7.746;2023-08-08T12:10:52;19.30;77.10
77305;DHT22;66364;52.622;7.746;2023-08-08T12:12:56;19.40;78.20
77305;DHT22;66364;52.622;7.746;2023-08-08T12:14:57;19.50;77.10
77305;DHT22;66364;52.622;7.746;2023-08-08T12:16:58;19.70;72.30
77305;DHT22;66364;52.622;7.746;2023-08-08T12:19:04;20.00;71.90
77305;DHT22;66364;52.622;7.746;2023-08-08T12:21:10;19.90;72.00
77305;DHT22;66364;52.622;7.746;2023-08-08T12:23:12;19.40;72.20
77305;DHT22;66364;52.622;7.746;2023-08-08T12:25:12;18.90;74.50
77305;DHT22;66364;52.622;7.746;2023-08-08T12:27:14;18.10;83.40
77305;DHT22;66364;52.622;7.746;2023-08-08T12:29:15;17.20;93.40
77305;DHT22;66364;52.622;7.746;2023-08-08T12:31:16;16.70;99.90
77305;DHT22;66364;52.622;7.746;2023-08-08T12:33:17;16.50;99.90
77305;DHT22;66364;52.622;7.746;2023-08-08T12:35:18;16.60;99.90
77305;DHT22;66364;52.622;7.746;2023-08-08T12:37:19;17.40;99.90
77305;DHT22;66364;52.622;7.746;2023-08-08T12:39:20;18.00;99.90
77305;DHT22;66364;52.622;7.746;2023-08-08T12:41:22;18.30;99.90
77305;DHT22;66364;52.622;7.746;2023-08-08T12:43:24;18.40;99.90
77305;DHT22;66364;52.622;7.746;2023-08-08T12:45:25;18.30;99.90
77305;DHT22;66364;52.622;7.746;2023-08-08T12:47:26;18.30;99.90
77305;DHT22;66364;52.622;7.746;2023-08-08T12:49:28;17.80;99.40
77305;DHT22;66364;52.622;7.746;2023-08-08T12:51:29;17.70;99.90